sensor_id;sensor_type;location;lat;lon;timestamp;pressure;altitude;pressure_sealevel;temperature;humidity
58739;BME280;44512;53.046;18.604;2022-07-30T00:07:23;101951.02;;;21.28;41.09
58739;BME280;44512;53.046;18.604;2022-07-30T00:17:51;101959.31;;;21.16;41.32
58739;BME280;44512;53.046;18.604;2022-07-30T00:28:20;101959.55;;;21.03;41.56
58739;BME280;44512;53.046;18.604;2022-07-30T00:38:48;101952.13;;;20.92;41.83
58739;BME280;44512;53.046;18.604;2022-07-30T00:49:16;101923.68;;;20.74;42.09
58739;BME280;44512;53.046;18.604;2022-07-30T00:59:44;101925.23;;;20.59;42.43
58739;BME280;44512;53.046;18.604;2022-07-30T01:10:14;101887.15;;;20.44;42.70
58739;BME280;44512;53.046;18.604;2022-07-30T01:20:54;101883.56;;;20.32;42.96
58739;BME280;44512;53.046;18.604;2022-07-30T01:31:12;101883.18;;;20.16;43.32
58739;BME280;44512;53.046;18.604;2022-07-30T01:41:38;101878.34;;;20.00;43.67
58739;BME280;44512;53.046;18.604;2022-07-30T01:52:07;101868.86;;;19.84;44.03
58739;BME280;44512;53.046;18.604;2022-07-30T02:02:35;101870.16;;;19.70;44.31
58739;BME280;44512;53.046;18.604;2022-07-30T02:13:05;101885.34;;;19.54;44.67
58739;BME280;44512;53.046;18.604;2022-07-30T02:23:38;101874.97;;;19.38;44.94
58739;BME280;44512;53.046;18.604;2022-07-30T02:34:02;101889.33;;;19.21;45.32
58739;BME280;44512;53.046;18.604;2022-07-30T02:44:29;101853.83;;;19.08;45.52
58739;BME280;44512;53.046;18.604;2022-07-30T02:54:59;101863.27;;;18.94;45.93
58739;BME280;44512;53.046;18.604;2022-07-30T03:05:25;101856.02;;;18.81;46.26
58739;BME280;44512;53.046;18.604;2022-07-30T03:15:56;101860.98;;;18.72;46.51
58739;BME280;44512;53.046;18.604;2022-07-30T03:26:23;101860.63;;;18.62;47.00
58739;BME280;44512;53.046;18.604;2022-07-30T03:36:51;101856.90;;;18.57;47.15
58739;BME280;44512;53.046;18.604;2022-07-30T03:47:19;101844.69;;;18.53;47.39
58739;BME280;44512;53.046;18.604;2022-07-30T03:57:47;101831.59;;;18.55;47.54
58739;BME280;44512;53.046;18.604;2022-07-30T04:08:15;101842.34;;;18.56;47.76
58739;BME280;44512;53.046;18.604;2022-07-30T04:18:50;101843.79;;;18.59;47.89
58739;BME280;44512;53.046;18.604;2022-07-30T04:29:12;101827.73;;;18.62;48.06
58739;BME280;44512;53.046;18.604;2022-07-30T04:39:40;101823.91;;;18.63;48.23
58739;BME280;44512;53.046;18.604;2022-07-30T04:50:09;101813.97;;;18.69;48.45
58739;BME280;44512;53.046;18.604;2022-07-30T05:00:38;101799.57;;;18.73;48.57
58739;BME280;44512;53.046;18.604;2022-07-30T05:11:05;101791.66;;;18.84;48.72
58739;BME280;44512;53.046;18.604;2022-07-30T05:21:34;101774.03;;;18.91;48.83
58739;BME280;44512;53.046;18.604;2022-07-30T05:32:02;101791.40;;;19.04;48.91
58739;BME280;44512;53.046;18.604;2022-07-30T05:42:30;101789.16;;;19.12;49.10
58739;BME280;44512;53.046;18.604;2022-07-30T05:52:59;101799.73;;;19.27;49.32
58739;BME280;44512;53.046;18.604;2022-07-30T06:03:27;101790.48;;;19.40;49.46
58739;BME280;44512;53.046;18.604;2022-07-30T06:13:55;101802.96;;;19.54;49.45
58739;BME280;44512;53.046;18.604;2022-07-30T06:24:24;101799.19;;;19.67;49.45
58739;BME280;44512;53.046;18.604;2022-07-30T06:34:52;101806.99;;;19.82;49.09
58739;BME280;44512;53.046;18.604;2022-07-30T06:45:20;101802.13;;;19.95;48.96
58739;BME280;44512;53.046;18.604;2022-07-30T06:55:49;101807.15;;;20.10;48.79
58739;BME280;44512;53.046;18.604;2022-07-30T07:06:17;101792.93;;;20.25;48.61
58739;BME280;44512;53.046;18.604;2022-07-30T07:16:47;101786.37;;;20.38;48.39
58739;BME280;44512;53.046;18.604;2022-07-30T07:27:14;101782.66;;;20.55;47.72
58739;BME280;44512;53.046;18.604;2022-07-30T07:37:42;101771.16;;;20.70;46.91
58739;BME280;44512;53.046;18.604;2022-07-30T07:48:11;101771.02;;;20.89;45.98
58739;BME280;44512;53.046;18.604;2022-07-30T07:58:39;101757.57;;;21.04;45.48
58739;BME280;44512;53.046;18.604;2022-07-30T08:09:07;101757.60;;;21.21;43.17
58739;BME280;44512;53.046;18.604;2022-07-30T08:19:35;101748.92;;;21.41;43.00
58739;BME280;44512;53.046;18.604;2022-07-30T08:30:05;101730.83;;;21.62;41.17
58739;BME280;44512;53.046;18.604;2022-07-30T08:40:34;101727.50;;;21.76;39.41
58739;BME280;44512;53.046;18.604;2022-07-30T08:51:01;101711.77;;;21.94;38.96
58739;BME280;44512;53.046;18.604;2022-07-30T09:01:29;101717.02;;;22.12;39.20
58739;BME280;44512;53.046;18.604;2022-07-30T09:11:58;101717.77;;;22.24;39.43
58739;BME280;44512;53.046;18.604;2022-07-30T09:32:55;101725.37;;;22.56;40.18
58739;BME280;44512;53.046;18.604;2022-07-30T09:43:22;101723.56;;;22.67;40.79
58739;BME280;44512;53.046;18.604;2022-07-30T09:53:55;101720.16;;;22.81;42.51
58739;BME280;44512;53.046;18.604;2022-07-30T10:04:29;101716.78;;;22.96;42.51
58739;BME280;44512;53.046;18.604;2022-07-30T10:14:48;101718.23;;;23.04;42.44
58739;BME280;44512;53.046;18.604;2022-07-30T10:25:20;101725.78;;;23.13;41.92
58739;BME280;44512;53.046;18.604;2022-07-30T10:35:44;101722.75;;;23.15;41.46
58739;BME280;44512;53.046;18.604;2022-07-30T11:02:08;101740.37;;;23.09;42.45
58739;BME280;44512;53.046;18.604;2022-07-30T11:33:24;101739.05;;;22.90;49.33
58739;BME280;44512;53.046;18.604;2022-07-30T11:54:21;101722.09;;;22.81;48.93
58739;BME280;44512;53.046;18.604;2022-07-30T12:04:49;101716.58;;;22.81;48.65
58739;BME280;44512;53.046;18.604;2022-07-30T12:15:27;101703.01;;;22.79;47.44
58739;BME280;44512;53.046;18.604;2022-07-30T12:25:46;101697.48;;;22.79;46.29
58739;BME280;44512;53.046;18.604;2022-07-30T12:46:43;101680.16;;;22.84;45.30
58739;BME280;44512;53.046;18.604;2022-07-30T12:57:11;101688.44;;;22.84;46.05
58739;BME280;44512;53.046;18.604;2022-07-30T13:18:08;101673.30;;;22.86;45.11
58739;BME280;44512;53.046;18.604;2022-07-30T13:28:37;101650.70;;;22.90;45.50
58739;BME280;44512;53.046;18.604;2022-07-30T13:39:04;101644.73;;;22.98;45.97
58739;BME280;44512;53.046;18.604;2022-07-30T13:49:33;101616.90;;;23.04;45.31
58739;BME280;44512;53.046;18.604;2022-07-30T14:00:03;101621.91;;;23.07;44.74
58739;BME280;44512;53.046;18.604;2022-07-30T14:10:30;101620.07;;;23.18;44.54
58739;BME280;44512;53.046;18.604;2022-07-30T14:20:59;101614.59;;;23.23;44.23
58739;BME280;44512;53.046;18.604;2022-07-30T14:31:26;101604.09;;;23.25;44.20
58739;BME280;44512;53.046;18.604;2022-07-30T14:41:54;101607.45;;;23.27;44.57
58739;BME280;44512;53.046;18.604;2022-07-30T14:52:23;101616.56;;;23.28;45.70
58739;BME280;44512;53.046;18.604;2022-07-30T15:02:51;101609.38;;;23.27;47.60
58739;BME280;44512;53.046;18.604;2022-07-30T15:13:20;101608.24;;;23.23;48.93
58739;BME280;44512;53.046;18.604;2022-07-30T15:23:48;101610.95;;;23.18;50.85
58739;BME280;44512;53.046;18.604;2022-07-30T15:34:16;101602.30;;;23.09;52.18
58739;BME280;44512;53.046;18.604;2022-07-30T15:44:45;101600.05;;;23.01;52.84
58739;BME280;44512;53.046;18.604;2022-07-30T15:55:13;101590.02;;;22.95;53.34
58739;BME280;44512;53.046;18.604;2022-07-30T16:05:41;101586.15;;;22.91;53.50
58739;BME280;44512;53.046;18.604;2022-07-30T16:16:09;101588.56;;;22.87;53.39
58739;BME280;44512;53.046;18.604;2022-07-30T16:26:38;101574.98;;;22.80;52.98
58739;BME280;44512;53.046;18.604;2022-07-30T16:37:06;101572.73;;;22.77;52.96
58739;BME280;44512;53.046;18.604;2022-07-30T16:47:34;101574.93;;;22.75;53.25
58739;BME280;44512;53.046;18.604;2022-07-30T16:58:03;101573.78;;;22.71;53.39
58739;BME280;44512;53.046;18.604;2022-07-30T17:08:31;101575.98;;;22.69;53.37
58739;BME280;44512;53.046;18.604;2022-07-30T17:18:59;101580.34;;;22.65;53.43
58739;BME280;44512;53.046;18.604;2022-07-30T17:29:28;101582.78;;;22.61;53.31
58739;BME280;44512;53.046;18.604;2022-07-30T17:39:56;101582.22;;;22.59;53.22
58739;BME280;44512;53.046;18.604;2022-07-30T17:50:24;101577.48;;;22.55;53.08
58739;BME280;44512;53.046;18.604;2022-07-30T18:00:53;101582.41;;;22.53;53.11
58739;BME280;44512;53.046;18.604;2022-07-30T18:11:21;101589.56;;;22.49;53.10
58739;BME280;44512;53.046;18.604;2022-07-30T18:21:49;101589.49;;;22.44;52.99
58739;BME280;44512;53.046;18.604;2022-07-30T18:32:18;101577.31;;;22.40;53.17
58739;BME280;44512;53.046;18.604;2022-07-30T18:42:46;101581.67;;;22.35;53.32
58739;BME280;44512;53.046;18.604;2022-07-30T18:53:14;101605.34;;;22.31;53.58
58739;BME280;44512;53.046;18.604;2022-07-30T19:03:44;101600.30;;;22.23;53.55
58739;BME280;44512;53.046;18.604;2022-07-30T19:14:12;101610.16;;;22.19;53.35
58739;BME280;44512;53.046;18.604;2022-07-30T19:24:39;101615.61;;;22.14;53.47
58739;BME280;44512;53.046;18.604;2022-07-30T19:35:08;101616.01;;;22.06;54.26
58739;BME280;44512;53.046;18.604;2022-07-30T19:45:36;101621.38;;;21.96;54.84
58739;BME280;44512;53.046;18.604;2022-07-30T19:56:04;101620.18;;;21.87;55.53
58739;BME280;44512;53.046;18.604;2022-07-30T20:06:33;101628.30;;;21.76;56.34
58739;BME280;44512;53.046;18.604;2022-07-30T20:17:01;101636.64;;;21.65;56.92
58739;BME280;44512;53.046;18.604;2022-07-30T20:27:30;101634.34;;;21.56;57.33
58739;BME280;44512;53.046;18.604;2022-07-30T20:37:58;101653.45;;;21.46;57.94
58739;BME280;44512;53.046;18.604;2022-07-30T20:48:26;101647.69;;;21.31;58.79
58739;BME280;44512;53.046;18.604;2022-07-30T20:58:54;101635.63;;;21.20;58.74
58739;BME280;44512;53.046;18.604;2022-07-30T21:09:23;101631.80;;;21.21;59.15
58739;BME280;44512;53.046;18.604;2022-07-30T21:19:51;101633.02;;;21.14;59.46
58739;BME280;44512;53.046;18.604;2022-07-30T21:30:20;101633.44;;;21.05;59.80
58739;BME280;44512;53.046;18.604;2022-07-30T21:40:48;101639.12;;;20.99;60.04
58739;BME280;44512;53.046;18.604;2022-07-30T21:51:16;101635.92;;;20.90;60.36
58739;BME280;44512;53.046;18.604;2022-07-30T22:01:45;101621.72;;;20.81;60.53
58739;BME280;44512;53.046;18.604;2022-07-30T22:12:13;101613.88;;;20.73;60.65
58739;BME280;44512;53.046;18.604;2022-07-30T22:22:41;101612.96;;;20.68;60.66
58739;BME280;44512;53.046;18.604;2022-07-30T22:33:12;101606.49;;;20.62;60.77
58739;BME280;44512;53.046;18.604;2022-07-30T22:43:38;101596.48;;;20.56;60.82
58739;BME280;44512;53.046;18.604;2022-07-30T22:54:06;101587.56;;;20.49;60.89
58739;BME280;44512;53.046;18.604;2022-07-30T23:04:35;101577.25;;;20.44;60.98
58739;BME280;44512;53.046;18.604;2022-07-30T23:15:05;101573.57;;;20.39;61.08
58739;BME280;44512;53.046;18.604;2022-07-30T23:25:31;101563.06;;;20.36;60.96
58739;BME280;44512;53.046;18.604;2022-07-30T23:36:00;101551.74;;;20.32;60.66
58739;BME280;44512;53.046;18.604;2022-07-30T23:46:28;101549.72;;;20.27;60.63
58739;BME280;44512;53.046;18.604;2022-07-30T23:56:56;101540.53;;;20.22;60.55
